sensor_id;sensor_type;location;lat;lon;timestamp;temperature;humidity
10903;DHT22;5504;47.312;11.060;2022-11-13T00:02:09;4.40;93.90
10903;DHT22;5504;47.312;11.060;2022-11-13T00:04:34;4.50;94.00
10903;DHT22;5504;47.312;11.060;2022-11-13T00:07:00;4.40;94.00
10903;DHT22;5504;47.312;11.060;2022-11-13T00:09:26;4.50;94.20
10903;DHT22;5504;47.312;11.060;2022-11-13T00:11:52;4.60;94.00
10903;DHT22;5504;47.312;11.060;2022-11-13T00:14:17;4.50;93.70
10903;DHT22;5504;47.312;11.060;2022-11-13T00:16:43;4.50;93.70
10903;DHT22;5504;47.312;11.060;2022-11-13T00:19:09;4.40;93.60
10903;DHT22;5504;47.312;11.060;2022-11-13T00:21:34;4.30;93.70
10903;DHT22;5504;47.312;11.060;2022-11-13T00:24:00;4.30;94.00
10903;DHT22;5504;47.312;11.060;2022-11-13T00:26:28;4.50;93.90
10903;DHT22;5504;47.312;11.060;2022-11-13T00:28:56;4.50;93.80
10903;DHT22;5504;47.312;11.060;2022-11-13T00:31:22;4.30;93.60
10903;DHT22;5504;47.312;11.060;2022-11-13T00:33:48;4.30;93.70
10903;DHT22;5504;47.312;11.060;2022-11-13T00:36:18;4.30;93.90
10903;DHT22;5504;47.312;11.060;2022-11-13T00:38:44;4.30;93.90
10903;DHT22;5504;47.312;11.060;2022-11-13T00:41:10;4.50;93.90
10903;DHT22;5504;47.312;11.060;2022-11-13T00:43:36;4.50;93.80
10903;DHT22;5504;47.312;11.060;2022-11-13T00:46:02;4.40;93.60
10903;DHT22;5504;47.312;11.060;2022-11-13T00:48:28;4.30;93.50
10903;DHT22;5504;47.312;11.060;2022-11-13T00:50:54;4.20;93.80
10903;DHT22;5504;47.312;11.060;2022-11-13T00:53:19;4.10;94.00
10903;DHT22;5504;47.312;11.060;2022-11-13T00:55:45;4.10;94.40
10903;DHT22;5504;47.312;11.060;2022-11-13T00:58:11;4.10;94.10
10903;DHT22;5504;47.312;11.060;2022-11-13T01:00:38;4.20;94.10
10903;DHT22;5504;47.312;11.060;2022-11-13T01:03:04;4.10;94.10
10903;DHT22;5504;47.312;11.060;2022-11-13T01:05:30;4.10;94.20
10903;DHT22;5504;47.312;11.060;2022-11-13T01:07:55;4.10;94.20
10903;DHT22;5504;47.312;11.060;2022-11-13T01:10:22;4.10;94.10
10903;DHT22;5504;47.312;11.060;2022-11-13T01:12:48;4.10;93.90
10903;DHT22;5504;47.312;11.060;2022-11-13T01:15:13;4.10;94.00
10903;DHT22;5504;47.312;11.060;2022-11-13T01:17:39;4.10;93.90
10903;DHT22;5504;47.312;11.060;2022-11-13T01:20:05;4.10;93.90
10903;DHT22;5504;47.312;11.060;2022-11-13T01:22:31;4.10;93.90
10903;DHT22;5504;47.312;11.060;2022-11-13T01:24:57;4.20;93.90
10903;DHT22;5504;47.312;11.060;2022-11-13T01:27:23;4.30;93.80
10903;DHT22;5504;47.312;11.060;2022-11-13T01:29:48;4.30;93.60
10903;DHT22;5504;47.312;11.060;2022-11-13T01:32:14;4.00;93.30
10903;DHT22;5504;47.312;11.060;2022-11-13T01:34:40;3.90;93.70
10903;DHT22;5504;47.312;11.060;2022-11-13T01:37:05;3.90;93.90
10903;DHT22;5504;47.312;11.060;2022-11-13T01:39:31;3.90;94.10
10903;DHT22;5504;47.312;11.060;2022-11-13T01:41:57;4.00;94.30
10903;DHT22;5504;47.312;11.060;2022-11-13T01:44:23;4.00;94.20
10903;DHT22;5504;47.312;11.060;2022-11-13T01:46:54;4.00;94.00
10903;DHT22;5504;47.312;11.060;2022-11-13T01:51:49;3.90;94.20
10903;DHT22;5504;47.312;11.060;2022-11-13T01:54:20;3.80;94.30
10903;DHT22;5504;47.312;11.060;2022-11-13T01:56:47;3.70;94.30
10903;DHT22;5504;47.312;11.060;2022-11-13T01:59:25;3.80;94.50
10903;DHT22;5504;47.312;11.060;2022-11-13T02:01:52;3.80;94.40
10903;DHT22;5504;47.312;11.060;2022-11-13T02:04:18;3.90;94.30
10903;DHT22;5504;47.312;11.060;2022-11-13T02:06:48;4.00;94.30
10903;DHT22;5504;47.312;11.060;2022-11-13T02:09:17;4.00;94.00
10903;DHT22;5504;47.312;11.060;2022-11-13T02:11:45;4.00;93.70
10903;DHT22;5504;47.312;11.060;2022-11-13T02:14:11;4.00;93.70
10903;DHT22;5504;47.312;11.060;2022-11-13T02:16:40;3.80;93.70
10903;DHT22;5504;47.312;11.060;2022-11-13T02:19:15;3.70;94.10
10903;DHT22;5504;47.312;11.060;2022-11-13T02:24:41;3.80;94.30
10903;DHT22;5504;47.312;11.060;2022-11-13T02:27:34;3.80;94.10
10903;DHT22;5504;47.312;11.060;2022-11-13T02:29:58;3.80;94.20
10903;DHT22;5504;47.312;11.060;2022-11-13T02:32:23;3.80;94.00
10903;DHT22;5504;47.312;11.060;2022-11-13T02:34:49;3.60;93.90
10903;DHT22;5504;47.312;11.060;2022-11-13T02:37:15;3.60;94.10
10903;DHT22;5504;47.312;11.060;2022-11-13T02:39:40;3.60;94.20
10903;DHT22;5504;47.312;11.060;2022-11-13T02:42:06;3.70;94.30
10903;DHT22;5504;47.312;11.060;2022-11-13T02:44:32;3.70;94.00
10903;DHT22;5504;47.312;11.060;2022-11-13T02:46:57;3.60;94.00
10903;DHT22;5504;47.312;11.060;2022-11-13T02:49:23;3.50;94.00
10903;DHT22;5504;47.312;11.060;2022-11-13T02:51:48;3.50;94.20
10903;DHT22;5504;47.312;11.060;2022-11-13T02:54:14;3.50;94.20
10903;DHT22;5504;47.312;11.060;2022-11-13T02:56:40;3.50;94.30
10903;DHT22;5504;47.312;11.060;2022-11-13T02:59:06;3.50;94.30
10903;DHT22;5504;47.312;11.060;2022-11-13T03:01:31;3.50;94.30
10903;DHT22;5504;47.312;11.060;2022-11-13T03:03:57;3.60;94.30
10903;DHT22;5504;47.312;11.060;2022-11-13T03:06:23;3.70;94.40
10903;DHT22;5504;47.312;11.060;2022-11-13T03:08:48;3.60;93.90
10903;DHT22;5504;47.312;11.060;2022-11-13T03:11:14;3.50;93.80
10903;DHT22;5504;47.312;11.060;2022-11-13T03:13:39;3.50;94.10
10903;DHT22;5504;47.312;11.060;2022-11-13T03:16:15;3.60;94.20
10903;DHT22;5504;47.312;11.060;2022-11-13T03:18:41;3.50;94.20
10903;DHT22;5504;47.312;11.060;2022-11-13T03:21:10;3.50;94.20
10903;DHT22;5504;47.312;11.060;2022-11-13T03:23:36;3.70;94.20
10903;DHT22;5504;47.312;11.060;2022-11-13T03:26:10;3.70;93.90
10903;DHT22;5504;47.312;11.060;2022-11-13T03:28:36;3.70;93.70
10903;DHT22;5504;47.312;11.060;2022-11-13T03:31:03;3.70;93.60
10903;DHT22;5504;47.312;11.060;2022-11-13T03:33:30;3.50;93.70
10903;DHT22;5504;47.312;11.060;2022-11-13T03:35:56;3.40;93.80
10903;DHT22;5504;47.312;11.060;2022-11-13T03:38:21;3.30;94.00
10903;DHT22;5504;47.312;11.060;2022-11-13T03:40:48;3.40;94.40
10903;DHT22;5504;47.312;11.060;2022-11-13T03:43:14;3.30;94.20
10903;DHT22;5504;47.312;11.060;2022-11-13T03:45:40;3.40;94.40
10903;DHT22;5504;47.312;11.060;2022-11-13T03:48:06;3.40;94.40
10903;DHT22;5504;47.312;11.060;2022-11-13T03:50:32;3.50;94.20
10903;DHT22;5504;47.312;11.060;2022-11-13T03:52:57;3.50;93.90
10903;DHT22;5504;47.312;11.060;2022-11-13T03:55:23;3.50;93.80
10903;DHT22;5504;47.312;11.060;2022-11-13T03:57:49;3.40;93.60
10903;DHT22;5504;47.312;11.060;2022-11-13T04:00:15;3.40;93.90
10903;DHT22;5504;47.312;11.060;2022-11-13T04:02:40;3.40;93.90
10903;DHT22;5504;47.312;11.060;2022-11-13T04:05:07;3.40;93.80
10903;DHT22;5504;47.312;11.060;2022-11-13T04:07:33;3.30;93.80
10903;DHT22;5504;47.312;11.060;2022-11-13T04:09:59;3.20;94.10
10903;DHT22;5504;47.312;11.060;2022-11-13T04:12:24;3.10;94.40
10903;DHT22;5504;47.312;11.060;2022-11-13T04:14:50;3.10;94.50
10903;DHT22;5504;47.312;11.060;2022-11-13T04:17:16;3.10;94.50
10903;DHT22;5504;47.312;11.060;2022-11-13T04:19:41;3.00;94.50
10903;DHT22;5504;47.312;11.060;2022-11-13T04:22:07;3.10;94.80
10903;DHT22;5504;47.312;11.060;2022-11-13T04:24:32;3.20;94.90
10903;DHT22;5504;47.312;11.060;2022-11-13T04:26:58;3.20;94.60
10903;DHT22;5504;47.312;11.060;2022-11-13T04:29:24;3.30;94.20
10903;DHT22;5504;47.312;11.060;2022-11-13T04:31:49;3.10;94.10
10903;DHT22;5504;47.312;11.060;2022-11-13T04:34:15;3.20;94.50
10903;DHT22;5504;47.312;11.060;2022-11-13T04:36:41;3.20;94.50
10903;DHT22;5504;47.312;11.060;2022-11-13T04:39:06;3.20;94.40
10903;DHT22;5504;47.312;11.060;2022-11-13T04:41:32;3.10;94.30
10903;DHT22;5504;47.312;11.060;2022-11-13T04:44:16;3.30;94.40
10903;DHT22;5504;47.312;11.060;2022-11-13T04:46:42;3.40;94.30
10903;DHT22;5504;47.312;11.060;2022-11-13T04:49:08;3.50;94.00
10903;DHT22;5504;47.312;11.060;2022-11-13T04:51:33;3.50;93.80
10903;DHT22;5504;47.312;11.060;2022-11-13T04:53:59;3.50;93.80
10903;DHT22;5504;47.312;11.060;2022-11-13T04:56:25;3.50;93.70
10903;DHT22;5504;47.312;11.060;2022-11-13T04:58:51;3.30;93.60
10903;DHT22;5504;47.312;11.060;2022-11-13T05:01:16;3.20;93.90
10903;DHT22;5504;47.312;11.060;2022-11-13T05:03:42;3.20;94.30
10903;DHT22;5504;47.312;11.060;2022-11-13T05:06:09;3.30;94.10
10903;DHT22;5504;47.312;11.060;2022-11-13T05:08:35;3.30;94.10
10903;DHT22;5504;47.312;11.060;2022-11-13T05:11:02;3.30;94.20
10903;DHT22;5504;47.312;11.060;2022-11-13T05:13:32;3.40;94.10
10903;DHT22;5504;47.312;11.060;2022-11-13T05:16:06;3.40;93.90
10903;DHT22;5504;47.312;11.060;2022-11-13T05:18:33;3.20;93.60
10903;DHT22;5504;47.312;11.060;2022-11-13T05:20:59;3.20;93.80
10903;DHT22;5504;47.312;11.060;2022-11-13T05:23:25;3.10;93.80
10903;DHT22;5504;47.312;11.060;2022-11-13T05:25:51;3.10;94.10
10903;DHT22;5504;47.312;11.060;2022-11-13T05:28:17;3.10;94.20
10903;DHT22;5504;47.312;11.060;2022-11-13T05:30:43;3.10;94.10
10903;DHT22;5504;47.312;11.060;2022-11-13T05:33:09;3.00;93.90
10903;DHT22;5504;47.312;11.060;2022-11-13T05:35:35;2.90;94.00
10903;DHT22;5504;47.312;11.060;2022-11-13T05:38:01;2.80;94.30
10903;DHT22;5504;47.312;11.060;2022-11-13T05:40:28;2.90;94.50
10903;DHT22;5504;47.312;11.060;2022-11-13T05:42:55;3.00;94.50
10903;DHT22;5504;47.312;11.060;2022-11-13T05:45:21;3.10;94.20
10903;DHT22;5504;47.312;11.060;2022-11-13T05:47:47;3.00;93.90
10903;DHT22;5504;47.312;11.060;2022-11-13T05:50:14;3.00;93.90
10903;DHT22;5504;47.312;11.060;2022-11-13T05:52:40;3.00;94.00
10903;DHT22;5504;47.312;11.060;2022-11-13T05:55:08;3.00;93.90
10903;DHT22;5504;47.312;11.060;2022-11-13T05:57:33;2.90;93.80
10903;DHT22;5504;47.312;11.060;2022-11-13T05:59:59;2.80;93.90
10903;DHT22;5504;47.312;11.060;2022-11-13T06:02:25;2.80;94.00
10903;DHT22;5504;47.312;11.060;2022-11-13T06:04:50;2.90;94.30
10903;DHT22;5504;47.312;11.060;2022-11-13T06:07:16;3.10;94.40
10903;DHT22;5504;47.312;11.060;2022-11-13T06:09:42;3.20;93.80
10903;DHT22;5504;47.312;11.060;2022-11-13T06:12:07;3.10;93.50
10903;DHT22;5504;47.312;11.060;2022-11-13T06:14:33;2.80;93.70
10903;DHT22;5504;47.312;11.060;2022-11-13T06:16:58;2.70;94.10
10903;DHT22;5504;47.312;11.060;2022-11-13T06:19:24;2.70;94.20
10903;DHT22;5504;47.312;11.060;2022-11-13T06:21:50;2.80;94.00
10903;DHT22;5504;47.312;11.060;2022-11-13T06:24:15;3.00;94.00
10903;DHT22;5504;47.312;11.060;2022-11-13T06:26:41;3.00;93.70
10903;DHT22;5504;47.312;11.060;2022-11-13T06:29:10;3.20;93.40
10903;DHT22;5504;47.312;11.060;2022-11-13T06:31:36;3.10;93.40
10903;DHT22;5504;47.312;11.060;2022-11-13T06:34:03;3.00;93.30
10903;DHT22;5504;47.312;11.060;2022-11-13T06:36:31;2.90;93.50
10903;DHT22;5504;47.312;11.060;2022-11-13T06:38:58;2.90;93.70
10903;DHT22;5504;47.312;11.060;2022-11-13T06:41:29;2.80;93.80
10903;DHT22;5504;47.312;11.060;2022-11-13T06:43:56;2.90;93.90
10903;DHT22;5504;47.312;11.060;2022-11-13T06:46:24;3.00;94.20
10903;DHT22;5504;47.312;11.060;2022-11-13T06:48:50;3.30;94.60
10903;DHT22;5504;47.312;11.060;2022-11-13T06:51:19;3.60;94.60
10903;DHT22;5504;47.312;11.060;2022-11-13T06:53:45;3.90;94.10
10903;DHT22;5504;47.312;11.060;2022-11-13T06:56:12;4.20;93.70
10903;DHT22;5504;47.312;11.060;2022-11-13T06:58:38;4.60;93.20
10903;DHT22;5504;47.312;11.060;2022-11-13T07:01:23;5.00;93.20
10903;DHT22;5504;47.312;11.060;2022-11-13T07:03:49;5.30;92.30
10903;DHT22;5504;47.312;11.060;2022-11-13T07:06:18;5.50;91.70
10903;DHT22;5504;47.312;11.060;2022-11-13T07:08:44;5.80;91.20
10903;DHT22;5504;47.312;11.060;2022-11-13T07:11:13;5.90;90.60
10903;DHT22;5504;47.312;11.060;2022-11-13T07:13:39;6.00;90.60
10903;DHT22;5504;47.312;11.060;2022-11-13T07:16:07;6.00;90.70
10903;DHT22;5504;47.312;11.060;2022-11-13T07:18:33;6.40;90.80
10903;DHT22;5504;47.312;11.060;2022-11-13T07:21:04;6.00;90.20
10903;DHT22;5504;47.312;11.060;2022-11-13T07:23:30;5.70;91.60
10903;DHT22;5504;47.312;11.060;2022-11-13T07:25:56;6.40;91.70
10903;DHT22;5504;47.312;11.060;2022-11-13T07:28:22;7.00;90.60
10903;DHT22;5504;47.312;11.060;2022-11-13T07:30:48;7.50;89.80
10903;DHT22;5504;47.312;11.060;2022-11-13T07:33:13;8.10;88.20
10903;DHT22;5504;47.312;11.060;2022-11-13T07:35:39;8.50;87.20
10903;DHT22;5504;47.312;11.060;2022-11-13T07:38:05;8.90;84.50
10903;DHT22;5504;47.312;11.060;2022-11-13T07:40:30;9.20;83.10
10903;DHT22;5504;47.312;11.060;2022-11-13T07:43:00;9.40;81.30
10903;DHT22;5504;47.312;11.060;2022-11-13T07:45:27;9.70;81.40
10903;DHT22;5504;47.312;11.060;2022-11-13T07:48:00;9.80;80.70
10903;DHT22;5504;47.312;11.060;2022-11-13T07:50:31;9.70;79.70
10903;DHT22;5504;47.312;11.060;2022-11-13T07:52:59;9.60;81.30
10903;DHT22;5504;47.312;11.060;2022-11-13T07:55:27;10.00;81.40
10903;DHT22;5504;47.312;11.060;2022-11-13T07:57:57;10.30;80.10
10903;DHT22;5504;47.312;11.060;2022-11-13T08:00:27;10.60;80.30
10903;DHT22;5504;47.312;11.060;2022-11-13T08:02:53;10.90;80.20
10903;DHT22;5504;47.312;11.060;2022-11-13T08:05:19;11.00;79.70
10903;DHT22;5504;47.312;11.060;2022-11-13T08:07:49;11.00;77.90
10903;DHT22;5504;47.312;11.060;2022-11-13T08:10:16;11.40;77.40
10903;DHT22;5504;47.312;11.060;2022-11-13T08:12:42;10.30;77.00
10903;DHT22;5504;47.312;11.060;2022-11-13T08:15:09;10.50;78.40
10903;DHT22;5504;47.312;11.060;2022-11-13T08:17:35;10.50;77.00
10903;DHT22;5504;47.312;11.060;2022-11-13T08:20:00;10.10;77.40
10903;DHT22;5504;47.312;11.060;2022-11-13T08:22:26;9.80;79.50
10903;DHT22;5504;47.312;11.060;2022-11-13T08:24:52;10.60;79.90
10903;DHT22;5504;47.312;11.060;2022-11-13T08:27:20;11.10;78.00
10903;DHT22;5504;47.312;11.060;2022-11-13T08:29:45;11.60;77.10
10903;DHT22;5504;47.312;11.060;2022-11-13T08:32:15;11.90;75.20
10903;DHT22;5504;47.312;11.060;2022-11-13T08:34:41;12.00;75.00
10903;DHT22;5504;47.312;11.060;2022-11-13T08:37:07;12.70;76.70
10903;DHT22;5504;47.312;11.060;2022-11-13T08:39:33;13.50;76.00
10903;DHT22;5504;47.312;11.060;2022-11-13T08:42:03;14.00;72.10
10903;DHT22;5504;47.312;11.060;2022-11-13T08:44:29;13.50;67.60
10903;DHT22;5504;47.312;11.060;2022-11-13T08:46:55;12.60;69.60
10903;DHT22;5504;47.312;11.060;2022-11-13T08:49:21;12.40;70.90
10903;DHT22;5504;47.312;11.060;2022-11-13T08:51:47;12.20;70.40
10903;DHT22;5504;47.312;11.060;2022-11-13T08:54:12;12.60;71.10
10903;DHT22;5504;47.312;11.060;2022-11-13T08:56:38;12.70;71.40
10903;DHT22;5504;47.312;11.060;2022-11-13T08:59:04;12.70;70.10
10903;DHT22;5504;47.312;11.060;2022-11-13T09:01:29;13.00;69.40
10903;DHT22;5504;47.312;11.060;2022-11-13T09:03:55;13.20;68.70
10903;DHT22;5504;47.312;11.060;2022-11-13T09:06:23;13.00;67.60
10903;DHT22;5504;47.312;11.060;2022-11-13T09:08:49;13.30;68.40
10903;DHT22;5504;47.312;11.060;2022-11-13T09:11:15;13.70;66.50
10903;DHT22;5504;47.312;11.060;2022-11-13T09:13:40;13.40;66.30
10903;DHT22;5504;47.312;11.060;2022-11-13T09:16:06;13.20;65.60
10903;DHT22;5504;47.312;11.060;2022-11-13T09:18:32;13.70;69.90
10903;DHT22;5504;47.312;11.060;2022-11-13T09:21:01;13.70;65.60
10903;DHT22;5504;47.312;11.060;2022-11-13T09:23:27;13.70;67.70
10903;DHT22;5504;47.312;11.060;2022-11-13T09:25:53;14.60;67.70
10903;DHT22;5504;47.312;11.060;2022-11-13T09:28:19;15.00;62.60
10903;DHT22;5504;47.312;11.060;2022-11-13T09:30:45;14.00;67.30
10903;DHT22;5504;47.312;11.060;2022-11-13T09:33:11;14.10;66.40
10903;DHT22;5504;47.312;11.060;2022-11-13T09:35:40;14.20;65.50
10903;DHT22;5504;47.312;11.060;2022-11-13T09:38:16;13.60;65.00
10903;DHT22;5504;47.312;11.060;2022-11-13T09:43:55;14.40;68.60
10903;DHT22;5504;47.312;11.060;2022-11-13T09:46:23;15.50;66.00
10903;DHT22;5504;47.312;11.060;2022-11-13T09:48:59;15.80;61.40
10903;DHT22;5504;47.312;11.060;2022-11-13T09:51:32;14.70;61.90
10903;DHT22;5504;47.312;11.060;2022-11-13T09:54:08;15.10;65.50
10903;DHT22;5504;47.312;11.060;2022-11-13T09:56:39;15.80;60.00
10903;DHT22;5504;47.312;11.060;2022-11-13T09:59:31;15.90;59.50
10903;DHT22;5504;47.312;11.060;2022-11-13T10:13:37;15.50;61.80
10903;DHT22;5504;47.312;11.060;2022-11-13T10:16:31;15.40;59.80
10903;DHT22;5504;47.312;11.060;2022-11-13T10:22:18;16.00;59.50
10903;DHT22;5504;47.312;11.060;2022-11-13T10:24:44;16.20;59.20
10903;DHT22;5504;47.312;11.060;2022-11-13T10:27:11;16.40;59.70
10903;DHT22;5504;47.312;11.060;2022-11-13T10:29:38;16.90;59.10
10903;DHT22;5504;47.312;11.060;2022-11-13T10:32:26;16.50;58.60
10903;DHT22;5504;47.312;11.060;2022-11-13T10:38:01;16.40;59.10
10903;DHT22;5504;47.312;11.060;2022-11-13T10:40:37;15.30;59.30
10903;DHT22;5504;47.312;11.060;2022-11-13T10:43:20;14.90;60.20
10903;DHT22;5504;47.312;11.060;2022-11-13T10:46:04;14.10;60.50
10903;DHT22;5504;47.312;11.060;2022-11-13T10:48:35;14.50;64.40
10903;DHT22;5504;47.312;11.060;2022-11-13T10:53:46;15.70;61.80
10903;DHT22;5504;47.312;11.060;2022-11-13T10:56:26;16.10;59.90
10903;DHT22;5504;47.312;11.060;2022-11-13T11:01:27;16.60;58.30
10903;DHT22;5504;47.312;11.060;2022-11-13T11:03:53;16.30;59.20
10903;DHT22;5504;47.312;11.060;2022-11-13T11:06:19;17.10;58.80
10903;DHT22;5504;47.312;11.060;2022-11-13T11:08:45;17.30;57.00
10903;DHT22;5504;47.312;11.060;2022-11-13T11:11:15;17.10;58.70
10903;DHT22;5504;47.312;11.060;2022-11-13T11:14:20;17.90;57.80
10903;DHT22;5504;47.312;11.060;2022-11-13T11:16:51;18.60;56.70
10903;DHT22;5504;47.312;11.060;2022-11-13T11:19:20;18.50;58.10
10903;DHT22;5504;47.312;11.060;2022-11-13T11:21:49;18.90;56.80
10903;DHT22;5504;47.312;11.060;2022-11-13T11:24:32;18.00;55.60
10903;DHT22;5504;47.312;11.060;2022-11-13T11:27:18;18.50;55.20
10903;DHT22;5504;47.312;11.060;2022-11-13T11:29:59;18.00;55.90
10903;DHT22;5504;47.312;11.060;2022-11-13T11:32:44;17.70;56.60
10903;DHT22;5504;47.312;11.060;2022-11-13T11:37:50;15.80;57.80
10903;DHT22;5504;47.312;11.060;2022-11-13T11:40:20;16.60;57.50
10903;DHT22;5504;47.312;11.060;2022-11-13T11:42:52;17.20;57.80
10903;DHT22;5504;47.312;11.060;2022-11-13T11:45:24;18.00;57.60
10903;DHT22;5504;47.312;11.060;2022-11-13T11:47:52;18.80;56.70
10903;DHT22;5504;47.312;11.060;2022-11-13T11:53:14;18.10;54.70
10903;DHT22;5504;47.312;11.060;2022-11-13T12:10:02;16.20;55.00
10903;DHT22;5504;47.312;11.060;2022-11-13T12:26:43;18.20;57.20
10903;DHT22;5504;47.312;11.060;2022-11-13T12:34:40;17.60;54.70
10903;DHT22;5504;47.312;11.060;2022-11-13T12:37:12;17.80;56.10
10903;DHT22;5504;47.312;11.060;2022-11-13T12:42:10;18.70;54.80
10903;DHT22;5504;47.312;11.060;2022-11-13T12:47:10;17.20;54.90
10903;DHT22;5504;47.312;11.060;2022-11-13T12:49:37;17.20;55.30
10903;DHT22;5504;47.312;11.060;2022-11-13T12:52:25;18.00;57.80
10903;DHT22;5504;47.312;11.060;2022-11-13T12:54:50;18.10;54.30
10903;DHT22;5504;47.312;11.060;2022-11-13T12:57:22;18.30;54.80
10903;DHT22;5504;47.312;11.060;2022-11-13T12:59:54;18.00;55.60
10903;DHT22;5504;47.312;11.060;2022-11-13T13:05:39;17.20;54.50
10903;DHT22;5504;47.312;11.060;2022-11-13T13:11:19;18.50;58.40
10903;DHT22;5504;47.312;11.060;2022-11-13T13:13:54;18.90;58.10
10903;DHT22;5504;47.312;11.060;2022-11-13T13:16:28;19.10;56.40
10903;DHT22;5504;47.312;11.060;2022-11-13T13:19:06;18.20;53.80
10903;DHT22;5504;47.312;11.060;2022-11-13T13:21:42;18.10;54.90
10903;DHT22;5504;47.312;11.060;2022-11-13T13:24:32;18.00;55.60
10903;DHT22;5504;47.312;11.060;2022-11-13T13:26:59;17.80;55.80
10903;DHT22;5504;47.312;11.060;2022-11-13T13:29:26;18.40;59.50
10903;DHT22;5504;47.312;11.060;2022-11-13T13:32:06;18.90;60.10
10903;DHT22;5504;47.312;11.060;2022-11-13T13:35:03;18.70;59.40
10903;DHT22;5504;47.312;11.060;2022-11-13T13:40:44;17.70;60.00
10903;DHT22;5504;47.312;11.060;2022-11-13T13:48:41;17.30;63.70
10903;DHT22;5504;47.312;11.060;2022-11-13T13:52:15;17.60;60.10
10903;DHT22;5504;47.312;11.060;2022-11-13T13:54:20;17.60;62.20
10903;DHT22;5504;47.312;11.060;2022-11-13T13:56:47;17.70;58.50
10903;DHT22;5504;47.312;11.060;2022-11-13T13:59:19;17.60;58.90
10903;DHT22;5504;47.312;11.060;2022-11-13T14:01:55;18.00;62.30
10903;DHT22;5504;47.312;11.060;2022-11-13T14:04:25;17.90;61.70
10903;DHT22;5504;47.312;11.060;2022-11-13T14:06:56;17.50;62.90
10903;DHT22;5504;47.312;11.060;2022-11-13T14:09:24;16.70;62.10
10903;DHT22;5504;47.312;11.060;2022-11-13T14:12:01;17.00;65.00
10903;DHT22;5504;47.312;11.060;2022-11-13T14:14:28;17.00;63.20
10903;DHT22;5504;47.312;11.060;2022-11-13T14:16:56;17.00;63.60
10903;DHT22;5504;47.312;11.060;2022-11-13T14:19:23;17.00;63.70
10903;DHT22;5504;47.312;11.060;2022-11-13T14:21:55;16.80;63.40
10903;DHT22;5504;47.312;11.060;2022-11-13T14:24:25;16.70;62.60
10903;DHT22;5504;47.312;11.060;2022-11-13T14:26:53;16.50;64.10
10903;DHT22;5504;47.312;11.060;2022-11-13T14:29:33;16.50;63.00
10903;DHT22;5504;47.312;11.060;2022-11-13T14:32:04;16.10;64.30
10903;DHT22;5504;47.312;11.060;2022-11-13T14:34:30;15.50;66.80
10903;DHT22;5504;47.312;11.060;2022-11-13T14:39:51;16.20;65.10
10903;DHT22;5504;47.312;11.060;2022-11-13T14:42:20;15.70;64.80
10903;DHT22;5504;47.312;11.060;2022-11-13T14:44:47;15.60;65.30
10903;DHT22;5504;47.312;11.060;2022-11-13T14:47:27;15.60;65.80
10903;DHT22;5504;47.312;11.060;2022-11-13T14:49:53;14.30;69.00
10903;DHT22;5504;47.312;11.060;2022-11-13T14:52:26;13.70;70.80
10903;DHT22;5504;47.312;11.060;2022-11-13T14:55:06;13.50;70.50
10903;DHT22;5504;47.312;11.060;2022-11-13T14:57:32;13.20;72.20
10903;DHT22;5504;47.312;11.060;2022-11-13T15:00:16;12.10;73.70
10903;DHT22;5504;47.312;11.060;2022-11-13T15:02:41;12.20;75.30
10903;DHT22;5504;47.312;11.060;2022-11-13T15:05:07;12.30;75.10
10903;DHT22;5504;47.312;11.060;2022-11-13T15:07:33;12.10;74.40
10903;DHT22;5504;47.312;11.060;2022-11-13T15:10:03;11.80;75.30
10903;DHT22;5504;47.312;11.060;2022-11-13T15:12:28;11.70;76.00
10903;DHT22;5504;47.312;11.060;2022-11-13T15:14:54;11.70;76.20
10903;DHT22;5504;47.312;11.060;2022-11-13T15:17:21;11.60;77.10
10903;DHT22;5504;47.312;11.060;2022-11-13T15:19:50;11.60;77.50
10903;DHT22;5504;47.312;11.060;2022-11-13T15:22:16;11.60;77.30
10903;DHT22;5504;47.312;11.060;2022-11-13T15:24:42;11.50;77.40
10903;DHT22;5504;47.312;11.060;2022-11-13T15:27:17;11.00;79.50
10903;DHT22;5504;47.312;11.060;2022-11-13T15:29:43;11.10;78.30
10903;DHT22;5504;47.312;11.060;2022-11-13T15:32:13;10.70;78.50
10903;DHT22;5504;47.312;11.060;2022-11-13T15:34:39;10.80;78.90
10903;DHT22;5504;47.312;11.060;2022-11-13T15:37:13;10.60;79.60
10903;DHT22;5504;47.312;11.060;2022-11-13T15:39:39;10.60;80.40
10903;DHT22;5504;47.312;11.060;2022-11-13T15:42:10;10.50;80.70
10903;DHT22;5504;47.312;11.060;2022-11-13T15:44:37;10.00;82.50
10903;DHT22;5504;47.312;11.060;2022-11-13T15:47:02;10.30;82.20
10903;DHT22;5504;47.312;11.060;2022-11-13T15:49:28;10.20;81.70
10903;DHT22;5504;47.312;11.060;2022-11-13T15:51:54;9.60;83.40
10903;DHT22;5504;47.312;11.060;2022-11-13T15:54:31;9.90;83.40
10903;DHT22;5504;47.312;11.060;2022-11-13T15:56:57;9.70;83.20
10903;DHT22;5504;47.312;11.060;2022-11-13T15:59:23;9.70;84.10
10903;DHT22;5504;47.312;11.060;2022-11-13T16:01:48;9.10;86.40
10903;DHT22;5504;47.312;11.060;2022-11-13T16:04:14;9.20;86.70
10903;DHT22;5504;47.312;11.060;2022-11-13T16:06:41;9.40;86.50
10903;DHT22;5504;47.312;11.060;2022-11-13T16:09:13;9.60;85.90
10903;DHT22;5504;47.312;11.060;2022-11-13T16:11:39;9.40;85.40
10903;DHT22;5504;47.312;11.060;2022-11-13T16:14:05;9.40;85.90
10903;DHT22;5504;47.312;11.060;2022-11-13T16:16:37;8.90;87.00
10903;DHT22;5504;47.312;11.060;2022-11-13T16:19:20;9.20;86.20
10903;DHT22;5504;47.312;11.060;2022-11-13T16:21:46;9.20;85.70
10903;DHT22;5504;47.312;11.060;2022-11-13T16:24:12;9.30;85.60
10903;DHT22;5504;47.312;11.060;2022-11-13T16:26:39;9.40;84.50
10903;DHT22;5504;47.312;11.060;2022-11-13T16:29:27;9.30;84.80
10903;DHT22;5504;47.312;11.060;2022-11-13T16:31:53;9.20;85.80
10903;DHT22;5504;47.312;11.060;2022-11-13T16:34:19;8.90;87.20
10903;DHT22;5504;47.312;11.060;2022-11-13T16:36:45;8.90;87.70
10903;DHT22;5504;47.312;11.060;2022-11-13T16:39:14;8.80;88.00
10903;DHT22;5504;47.312;11.060;2022-11-13T16:41:40;9.00;87.30
10903;DHT22;5504;47.312;11.060;2022-11-13T16:44:06;9.00;87.00
10903;DHT22;5504;47.312;11.060;2022-11-13T16:46:33;9.10;87.10
10903;DHT22;5504;47.312;11.060;2022-11-13T16:49:00;9.00;87.00
10903;DHT22;5504;47.312;11.060;2022-11-13T16:51:25;8.80;87.20
10903;DHT22;5504;47.312;11.060;2022-11-13T16:53:51;9.00;87.30
10903;DHT22;5504;47.312;11.060;2022-11-13T16:56:22;9.20;86.30
10903;DHT22;5504;47.312;11.060;2022-11-13T16:58:55;9.10;85.60
10903;DHT22;5504;47.312;11.060;2022-11-13T17:01:22;8.70;86.40
10903;DHT22;5504;47.312;11.060;2022-11-13T17:03:48;8.40;88.40
10903;DHT22;5504;47.312;11.060;2022-11-13T17:06:28;8.30;88.80
10903;DHT22;5504;47.312;11.060;2022-11-13T17:08:55;8.40;89.00
10903;DHT22;5504;47.312;11.060;2022-11-13T17:11:24;8.50;88.10
10903;DHT22;5504;47.312;11.060;2022-11-13T17:13:57;8.60;87.70
10903;DHT22;5504;47.312;11.060;2022-11-13T17:16:24;8.40;87.70
10903;DHT22;5504;47.312;11.060;2022-11-13T17:18:51;8.10;88.80
10903;DHT22;5504;47.312;11.060;2022-11-13T17:21:19;8.30;88.70
10903;DHT22;5504;47.312;11.060;2022-11-13T17:23:45;8.40;88.30